Time;durP1;ratioP1;P1;durP2;ratioP2;P2;SDS_P1;SDS_P2;PMS_P1;PMS_P2;Temp;Humidity;BMP_temperature;BMP_pressure;BME280_temperature;BME280_humidity;BME280_pressure;Samples;Min_cycle;Max_cycle;Signal;HPM_P1;HPM_P2
2022/05/26 00:01:50;;;;;;;2.80;1.10;;;10.80;99.90;;;;;;4948195;28;21721;-90
2022/05/26 00:04:16;;;;;;;1.33;1.15;;;10.80;99.90;;;;;;4968664;28;20031;-92
2022/05/26 00:06:42;;;;;;;4.07;1.52;;;10.80;99.90;;;;;;4947451;29;20042;-92
2022/05/26 00:09:07;;;;;;;1.90;1.30;;;10.70;99.90;;;;;;4945700;28;20178;-92
2022/05/26 00:11:35;;;;;;;3.35;1.20;;;10.60;99.90;;;;;;4969494;28;20023;-92
2022/05/26 00:14:07;;;;;;;1.00;0.90;;;10.60;99.90;;;;;;4947961;28;20030;-92
2022/05/26 00:16:35;;;;;;;2.75;1.10;;;10.50;99.90;;;;;;4937563;28;20105;-92
2022/05/26 00:19:00;;;;;;;1.17;1.02;;;10.50;99.90;;;;;;4952734;28;20031;-92
2022/05/26 00:21:26;;;;;;;3.30;1.17;;;10.40;99.90;;;;;;4950671;29;20114;-92
2022/05/26 00:23:55;;;;;;;3.50;1.20;;;10.40;99.90;;;;;;4963716;28;20106;-92
2022/05/26 00:26:20;;;;;;;4.55;1.10;;;10.40;99.90;;;;;;4939442;29;20024;-92
2022/05/26 00:28:46;;;;;;;3.75;0.90;;;10.40;99.90;;;;;;4946398;28;20085;-90
2022/05/26 00:31:12;;;;;;;1.13;1.02;;;10.30;99.90;;;;;;4938121;28;20035;-92
2022/05/26 00:33:37;;;;;;;6.95;1.10;;;10.40;99.90;;;;;;4957430;28;20450;-91
2022/05/26 00:36:05;;;;;;;1.75;1.08;;;10.40;99.90;;;;;;4955864;28;20125;-92
2022/05/26 00:38:31;;;;;;;2.28;1.20;;;10.40;99.90;;;;;;4948496;28;20079;-91
2022/05/26 00:41:02;;;;;;;1.92;0.93;;;10.40;99.90;;;;;;4957402;28;20030;-92
2022/05/26 00:43:28;;;;;;;2.60;1.25;;;10.40;99.90;;;;;;4942138;28;20038;-92
2022/05/26 00:45:57;;;;;;;1.88;1.08;;;10.50;99.90;;;;;;4939588;28;20027;-92
2022/05/26 00:48:26;;;;;;;1.13;1.02;;;10.50;99.90;;;;;;4961735;28;20511;-92
2022/05/26 00:50:56;;;;;;;12.25;1.65;;;10.50;99.90;;;;;;4945375;28;20035;-92
2022/05/26 00:53:27;;;;;;;1.50;1.20;;;10.50;99.90;;;;;;4953775;28;20415;-92
2022/05/26 00:56:25;;;;;;;;;;;10.50;99.90;;;;;;4949139;28;21027;-92
2022/05/26 00:58:59;;;;;;;1.60;0.95;;;10.50;99.90;;;;;;4936494;29;19926;-92
2022/05/26 01:01:26;;;;;;;1.60;0.85;;;10.50;99.90;;;;;;4949873;28;20398;-92
2022/05/26 01:03:55;;;;;;;2.28;1.10;;;10.50;99.90;;;;;;4952807;28;20030;-92
2022/05/26 01:06:33;;;;;;;4.03;1.20;;;10.60;99.90;;;;;;4963020;28;20067;-92
2022/05/26 01:09:02;;;;;;;2.00;1.20;;;10.60;99.90;;;;;;4960029;28;20043;-92
2022/05/26 01:11:37;;;;;;;1.50;1.13;;;10.60;99.90;;;;;;4942628;28;20027;-92
2022/05/26 01:14:10;;;;;;;1.88;1.20;;;10.60;99.90;;;;;;4957585;28;20035;-92
2022/05/26 01:17:07;;;;;;;4.60;1.75;;;10.60;99.90;;;;;;4951562;28;20554;-92
2022/05/26 01:19:51;;;;;;;1.20;1.10;;;10.60;99.90;;;;;;4959703;28;20058;-92
2022/05/26 01:22:25;;;;;;;4.80;1.23;;;10.60;99.90;;;;;;4954009;29;20047;-92
2022/05/26 01:25:18;;;;;;;2.95;0.80;;;10.70;99.90;;;;;;4959832;28;20031;-91
2022/05/26 01:27:50;;;;;;;3.92;0.93;;;10.70;99.90;;;;;;4950172;28;20090;-91
2022/05/26 01:30:49;;;;;;;1.10;1.02;;;10.80;99.90;;;;;;4953216;28;20038;-92
2022/05/26 01:33:31;;;;;;;1.15;0.98;;;10.90;99.90;;;;;;4953618;29;20020;-90
2022/05/26 01:36:16;;;;;;;2.05;0.98;;;11.00;99.90;;;;;;4963986;28;20081;-92
2022/05/26 01:39:03;;;;;;;2.10;1.05;;;11.00;99.90;;;;;;4945329;28;20174;-92
2022/05/26 01:41:44;;;;;;;1.48;1.00;;;11.10;99.90;;;;;;4959450;28;20042;-92
2022/05/26 01:44:34;;;;;;;2.10;0.93;;;11.20;99.90;;;;;;4965163;28;20050;-92
2022/05/26 01:47:06;;;;;;;2.30;0.93;;;11.20;99.90;;;;;;4947371;28;20169;-92
2022/05/26 01:49:45;;;;;;;1.38;0.98;;;11.20;99.90;;;;;;4940222;29;20019;-92
2022/05/26 01:52:18;;;;;;;2.90;0.93;;;11.20;99.90;;;;;;4947622;28;20479;-92
2022/05/26 01:55:24;;;;;;;2.78;1.08;;;11.20;99.90;;;;;;4969027;28;20039;-92
2022/05/26 01:57:54;;;;;;;3.80;1.70;;;11.00;99.90;;;;;;4958091;28;20498;-92
2022/05/26 02:00:21;;;;;;;1.83;1.00;;;11.00;99.90;;;;;;4966625;28;20073;-92
2022/05/26 02:03:12;;;;;;;4.57;1.00;;;10.90;99.90;;;;;;4957078;28;20090;-92
2022/05/26 02:05:45;;;;;;;4.28;0.95;;;10.80;99.90;;;;;;4953267;28;20034;-92
2022/05/26 02:08:28;;;;;;;2.35;1.27;;;10.70;99.90;;;;;;4973608;28;20058;-92
2022/05/26 02:10:58;;;;;;;10.15;2.20;;;10.60;99.90;;;;;;4974484;28;20058;-92
2022/05/26 02:13:36;;;;;;;1.67;1.15;;;10.60;99.90;;;;;;4943804;28;20070;-92
2022/05/26 02:16:22;;;;;;;1.67;1.10;;;10.60;99.90;;;;;;4973419;28;20035;-91
2022/05/26 02:19:02;;;;;;;1.15;0.98;;;10.50;99.90;;;;;;4960162;28;20089;-91
2022/05/26 02:21:48;;;;;;;1.67;0.98;;;10.60;99.90;;;;;;4955835;28;20043;-91
2022/05/26 02:24:25;;;;;;;2.55;1.20;;;10.60;99.90;;;;;;4947516;28;20023;-93
2022/05/26 02:26:51;;;;;;;1.92;1.20;;;10.60;99.90;;;;;;4949934;28;20028;-92
2022/05/26 02:32:04;;;;;;;1.23;1.02;;;10.50;99.90;;;;;;4945019;28;20031;-92
2022/05/26 02:34:31;;;;;;;1.50;1.10;;;10.50;99.90;;;;;;4939186;28;20087;-92
2022/05/26 02:36:58;;;;;;;3.55;1.05;;;10.60;99.90;;;;;;4945543;28;20028;-93
2022/05/26 02:39:24;;;;;;;2.15;1.10;;;10.60;99.90;;;;;;4940147;29;20511;-92
2022/05/26 02:41:54;;;;;;;1.65;1.08;;;10.50;99.90;;;;;;4948974;28;20503;-92
2022/05/26 02:44:21;;;;;;;1.13;0.90;;;10.60;99.90;;;;;;4953732;28;20438;-92
2022/05/26 02:47:12;;;;;;;1.63;0.90;;;10.60;99.90;;;;;;4952207;28;20488;-92
2022/05/26 02:50:15;;;;;;;1.38;1.13;;;10.60;99.90;;;;;;4948896;28;20036;-92
2022/05/26 02:52:53;;;;;;;2.05;1.15;;;10.60;99.90;;;;;;4952721;28;20027;-92
2022/05/26 02:55:45;;;;;;;1.30;0.93;;;10.50;99.90;;;;;;4955071;28;20079;-91
2022/05/26 02:58:28;;;;;;;4.90;1.55;;;10.50;99.90;;;;;;4945687;29;20035;-92
2022/05/26 03:01:06;;;;;;;2.00;1.20;;;10.40;99.90;;;;;;4943443;28;20077;-92
2022/05/26 03:03:42;;;;;;;2.05;0.80;;;10.40;99.90;;;;;;4940073;29;20038;-92
2022/05/26 03:06:16;;;;;;;1.25;1.10;;;10.40;99.90;;;;;;4936578;29;20040;-92
2022/05/26 03:08:43;;;;;;;2.60;1.00;;;10.40;99.90;;;;;;4949124;29;20646;-92
2022/05/26 03:11:18;;;;;;;1.17;1.08;;;10.40;99.90;;;;;;4954060;29;20062;-92
2022/05/26 03:13:43;;;;;;;1.00;0.90;;;10.50;99.90;;;;;;4951024;29;20027;-92
2022/05/26 03:16:11;;;;;;;1.40;1.00;;;10.50;99.90;;;;;;4955139;28;20064;-93
2022/05/26 03:18:36;;;;;;;3.83;1.08;;;10.50;99.90;;;;;;4953781;29;20031;-93
2022/05/26 03:21:04;;;;;;;1.92;1.00;;;10.50;99.90;;;;;;4954601;28;20388;-92
2022/05/26 03:23:30;;;;;;;1.75;1.00;;;10.60;99.90;;;;;;4941086;28;20055;-92
2022/05/26 03:25:57;;;;;;;1.15;0.93;;;10.70;99.90;;;;;;4943027;28;20031;-92
2022/05/26 03:28:25;;;;;;;0.98;0.90;;;10.70;99.90;;;;;;4941039;29;20123;-91
2022/05/26 03:30:51;;;;;;;1.58;1.08;;;10.80;99.90;;;;;;4944927;29;20019;-91
2022/05/26 03:33:17;;;;;;;1.50;0.90;;;10.80;99.90;;;;;;4935603;29;20035;-92
2022/05/26 03:41:17;;;;;;;2.38;1.00;;;11.00;99.90;;;;;;4944531;28;20536;-92
2022/05/26 03:43:45;;;;;;;;;;;11.10;99.90;;;;;;4954813;28;20683;-92
2022/05/26 03:46:11;;;;;;;1.88;0.90;;;11.10;99.90;;;;;;4945150;28;19958;-93
2022/05/26 03:48:38;;;;;;;1.23;1.10;;;11.10;99.90;;;;;;4941398;28;20040;-93
2022/05/26 03:51:05;;;;;;;1.75;0.93;;;11.10;99.90;;;;;;4937212;29;20038;-92
2022/05/26 03:53:34;;;;;;;1.92;1.10;;;11.10;99.90;;;;;;4946913;28;20536;-92
2022/05/26 03:56:00;;;;;;;2.88;1.20;;;11.10;99.90;;;;;;4944217;28;20031;-92
2022/05/26 03:58:26;;;;;;;2.30;1.00;;;11.10;99.90;;;;;;4961892;28;20036;-92
2022/05/26 04:00:52;;;;;;;2.67;1.20;;;11.10;99.90;;;;;;4954000;29;20023;-92
2022/05/26 04:03:18;;;;;;;1.70;0.93;;;11.00;99.90;;;;;;4938109;28;20028;-93
2022/05/26 04:05:44;;;;;;;1.42;1.00;;;11.10;99.90;;;;;;4940704;29;20533;-92
2022/05/26 04:08:10;;;;;;;1.85;0.82;;;11.10;99.90;;;;;;4954440;28;20043;-93
2022/05/26 04:10:36;;;;;;;1.77;0.93;;;11.00;99.90;;;;;;4944443;29;20058;-93
2022/05/26 04:13:03;;;;;;;1.23;0.90;;;11.00;99.90;;;;;;4943036;29;20055;-93
2022/05/26 04:15:29;;;;;;;1.48;1.00;;;11.00;99.90;;;;;;4948758;28;20031;-93
2022/05/26 04:17:55;;;;;;;2.85;1.35;;;11.10;99.90;;;;;;4941033;28;20028;-92
2022/05/26 04:20:22;;;;;;;1.80;0.95;;;11.20;99.90;;;;;;4951512;29;20090;-92
2022/05/26 04:22:48;;;;;;;1.63;1.10;;;11.30;99.90;;;;;;4956455;28;20024;-92
2022/05/26 04:25:15;;;;;;;2.03;1.50;;;11.50;99.90;;;;;;4946665;29;20377;-95
2022/05/26 04:27:40;;;;;;;6.32;1.20;;;11.70;99.90;;;;;;4941656;29;20063;-92
2022/05/26 04:30:08;;;;;;;1.25;0.88;;;11.70;99.90;;;;;;4940955;28;20762;-93
2022/05/26 04:32:35;;;;;;;4.78;1.00;;;11.80;99.90;;;;;;4948245;28;20063;-92
2022/05/26 04:35:02;;;;;;;3.03;0.93;;;11.90;99.90;;;;;;4939133;28;20023;-93
2022/05/26 04:37:28;;;;;;;1.02;0.90;;;12.00;99.90;;;;;;4939228;28;20040;-93
2022/05/26 04:39:55;;;;;;;1.45;1.10;;;12.00;99.90;;;;;;4945404;29;20024;-93
2022/05/26 04:42:22;;;;;;;2.63;1.05;;;12.10;99.90;;;;;;4937820;28;20032;-93
2022/05/26 04:44:49;;;;;;;2.58;0.98;;;12.20;99.90;;;;;;4938214;28;20031;-91
2022/05/26 04:47:15;;;;;;;1.15;0.95;;;12.40;99.90;;;;;;4951386;28;20035;-93
2022/05/26 04:49:44;;;;;;;1.10;0.98;;;12.70;99.90;;;;;;4933943;29;20515;-93
2022/05/26 04:52:14;;;;;;;2.20;1.42;;;12.90;99.90;;;;;;4953134;29;20392;-93
2022/05/26 04:54:42;;;;;;;8.65;1.10;;;13.00;99.90;;;;;;4948209;28;20031;-91
2022/05/26 04:57:08;;;;;;;1.15;0.90;;;13.10;99.90;;;;;;4968227;28;20023;-92
2022/05/26 04:59:34;;;;;;;1.60;1.10;;;13.30;99.90;;;;;;4944731;28;20024;-92
2022/05/26 05:02:00;;;;;;;4.50;1.02;;;13.40;99.90;;;;;;4941737;28;20019;-92
2022/05/26 05:04:27;;;;;;;4.65;0.90;;;13.50;99.90;;;;;;4965189;28;20019;-93
2022/05/26 05:06:55;;;;;;;3.13;1.13;;;13.70;99.90;;;;;;4940499;29;20070;-92
2022/05/26 05:09:21;;;;;;;1.17;0.70;;;13.90;99.90;;;;;;4947636;29;20440;-94
2022/05/26 05:11:47;;;;;;;3.15;0.77;;;14.10;99.90;;;;;;4943033;28;20090;-93
2022/05/26 05:14:13;;;;;;;1.05;0.70;;;14.40;99.90;;;;;;4940446;29;20511;-91
2022/05/26 05:16:44;;;;;;;1.35;0.73;;;14.80;99.90;;;;;;4957200;28;20034;-92
2022/05/26 05:19:11;;;;;;;2.40;0.70;;;15.10;99.90;;;;;;4958255;29;20027;-95
2022/05/26 05:21:43;;;;;;;0.65;0.65;;;15.50;99.90;;;;;;4942296;28;20050;-93
2022/05/26 05:24:22;;;;;;;1.00;0.63;;;15.80;99.90;;;;;;4942528;29;20052;-92
2022/05/26 05:26:53;;;;;;;1.52;0.90;;;16.20;99.30;;;;;;4936169;28;20046;-92
2022/05/26 05:29:24;;;;;;;1.45;0.75;;;16.50;95.80;;;;;;4949757;28;20027;-94
2022/05/26 05:31:53;;;;;;;;;;;16.70;95.40;;;;;;4951114;28;20024;-93
2022/05/26 05:34:31;;;;;;;1.42;0.70;;;17.00;93.60;;;;;;4952559;28;20387;-95
2022/05/26 05:36:58;;;;;;;1.48;0.60;;;17.40;92.30;;;;;;4949101;28;20538;-94
2022/05/26 05:39:25;;;;;;;2.30;1.05;;;18.20;90.60;;;;;;4948116;28;20035;-93
2022/05/26 05:41:56;;;;;;;2.75;0.80;;;18.80;85.30;;;;;;4955259;28;20159;-96
2022/05/26 05:44:22;;;;;;;1.38;0.73;;;19.20;83.10;;;;;;4965669;28;20016;-95
2022/05/26 05:46:54;;;;;;;3.13;0.80;;;20.00;81.30;;;;;;4966989;28;20027;-95
2022/05/26 05:49:25;;;;;;;0.88;0.43;;;21.00;76.60;;;;;;4961806;28;20043;-93
2022/05/26 05:51:51;;;;;;;2.17;0.80;;;21.90;68.50;;;;;;4963164;28;20080;-94
2022/05/26 05:54:18;;;;;;;2.65;0.60;;;22.00;68.10;;;;;;4968839;28;20039;-96
2022/05/26 05:56:44;;;;;;;1.00;0.60;;;21.90;66.40;;;;;;4965765;28;20648;-95
2022/05/26 05:59:09;;;;;;;0.68;0.57;;;21.60;66.90;;;;;;4958024;28;20024;-95
2022/05/26 06:01:38;;;;;;;3.70;0.80;;;21.30;68.60;;;;;;4958048;28;20039;-93
2022/05/26 06:04:04;;;;;;;1.85;0.52;;;20.90;67.90;;;;;;4959174;28;20042;-95
2022/05/26 06:06:38;;;;;;;2.38;0.85;;;20.50;68.70;;;;;;4957939;28;20040;-96
2022/05/26 06:09:05;;;;;;;1.15;0.60;;;20.00;70.60;;;;;;4959472;28;20039;-94
2022/05/26 06:11:31;;;;;;;0.65;0.50;;;19.60;71.70;;;;;;4958786;28;20027;-95
2022/05/26 06:13:57;;;;;;;2.42;0.70;;;19.40;73.90;;;;;;4959736;28;20105;-93
2022/05/26 06:16:23;;;;;;;2.60;0.50;;;19.00;73.70;;;;;;4955783;28;20028;-96
2022/05/26 06:18:50;;;;;;;1.15;0.60;;;18.80;73.70;;;;;;4961118;29;20027;-96
2022/05/26 06:21:17;;;;;;;0.80;0.60;;;18.60;76.10;;;;;;4962633;28;20051;-94
2022/05/26 06:23:42;;;;;;;1.08;0.47;;;18.50;76.30;;;;;;4961179;28;20040;-95
2022/05/26 06:26:08;;;;;;;2.63;0.52;;;18.50;76.90;;;;;;4958191;28;20050;-93
2022/05/26 06:31:23;;;;;;;2.38;0.63;;;18.90;75.40;;;;;;4958654;29;20047;-94
2022/05/26 06:39:18;;;;;;;2.63;0.50;;;20.40;70.80;;;;;;4958808;28;20050;-95
2022/05/26 06:44:28;;;;;;;0.85;0.57;;;20.70;70.40;;;;;;4958298;28;20034;-93
2022/05/26 06:46:53;;;;;;;1.70;0.70;;;20.40;70.90;;;;;;4957496;28;20031;-94
2022/05/26 06:49:19;;;;;;;1.27;0.60;;;20.10;70.40;;;;;;4958753;29;20039;-96
2022/05/26 06:51:45;;;;;;;1.33;0.60;;;19.90;71.00;;;;;;4957254;28;20047;-93
2022/05/26 06:54:11;;;;;;;1.23;0.65;;;19.70;71.00;;;;;;4976857;28;20038;-94
2022/05/26 06:56:38;;;;;;;0.93;0.50;;;19.70;71.60;;;;;;4959929;28;20100;-95
2022/05/26 06:59:03;;;;;;;2.30;0.60;;;19.50;72.10;;;;;;4966619;28;20031;-95
2022/05/26 07:01:30;;;;;;;0.90;0.70;;;19.40;72.50;;;;;;4963986;28;20040;-95
2022/05/26 07:03:58;;;;;;;1.65;0.60;;;19.40;71.50;;;;;;4968008;28;20499;-95
2022/05/26 07:06:27;;;;;;;2.08;0.68;;;19.40;72.40;;;;;;4958980;28;20130;-94
2022/05/26 07:08:54;;;;;;;1.40;0.52;;;19.50;73.20;;;;;;4963355;28;20043;-94
2022/05/26 07:11:20;;;;;;;1.00;0.70;;;19.40;72.10;;;;;;4958650;28;20503;-93
2022/05/26 07:13:49;;;;;;;1.98;0.60;;;19.40;73.60;;;;;;4951605;28;20027;-93
2022/05/26 07:16:15;;;;;;;1.63;0.50;;;19.50;72.40;;;;;;4952413;29;20027;-92
2022/05/26 07:18:41;;;;;;;3.30;0.60;;;19.60;72.30;;;;;;4951647;28;20043;-93
2022/05/26 07:21:08;;;;;;;1.55;0.60;;;19.70;71.30;;;;;;4962401;28;20023;-95
2022/05/26 07:23:37;;;;;;;0.80;0.60;;;19.80;72.20;;;;;;4952547;28;20068;-94
2022/05/26 07:26:07;;;;;;;2.00;0.68;;;19.90;72.10;;;;;;4949444;28;20031;-93
2022/05/26 07:28:40;;;;;;;3.70;1.35;;;19.80;71.70;;;;;;4959225;28;20063;-94
2022/05/26 07:31:07;;;;;;;1.48;0.52;;;19.80;73.60;;;;;;4950306;28;20035;-93
2022/05/26 07:33:33;;;;;;;2.42;0.50;;;19.80;72.60;;;;;;4959408;28;20043;-94
2022/05/26 07:35:59;;;;;;;2.47;0.70;;;19.80;74.10;;;;;;4955123;28;20035;-94
2022/05/26 07:41:22;;;;;;;2.30;0.57;;;19.80;73.20;;;;;;4954545;28;20078;-94
2022/05/26 07:43:52;;;;;;;1.40;0.60;;;19.80;73.40;;;;;;4958130;28;20031;-96
2022/05/26 07:46:20;;;;;;;4.60;0.63;;;19.90;71.70;;;;;;4960841;28;20031;-93
2022/05/26 07:48:47;;;;;;;1.00;0.50;;;20.20;71.50;;;;;;4957621;28;20435;-94
2022/05/26 07:51:12;;;;;;;1.77;0.70;;;20.40;69.90;;;;;;4940156;28;20031;-96
2022/05/26 07:53:38;;;;;;;1.33;0.57;;;20.50;71.20;;;;;;4953847;29;20043;-95
2022/05/26 07:56:07;;;;;;;1.00;0.60;;;20.60;70.10;;;;;;4949819;28;20115;-94
2022/05/26 07:58:34;;;;;;;0.60;0.43;;;21.10;68.60;;;;;;4964500;28;20023;-94
2022/05/26 08:01:01;;;;;;;1.92;0.68;;;21.30;68.40;;;;;;4957632;28;20035;-93
2022/05/26 08:03:27;;;;;;;1.42;0.50;;;21.60;66.50;;;;;;4959746;28;20536;-92
2022/05/26 08:05:53;;;;;;;2.08;0.70;;;22.20;65.40;;;;;;4953726;28;20028;-93
2022/05/26 08:08:18;;;;;;;1.05;0.50;;;22.50;63.40;;;;;;4951673;28;20040;-94
2022/05/26 08:10:45;;;;;;;1.38;0.50;;;22.20;63.80;;;;;;4955460;28;20545;-95
2022/05/26 08:13:11;;;;;;;1.70;0.60;;;21.90;65.00;;;;;;4956814;28;20031;-95
2022/05/26 08:15:37;;;;;;;1.95;0.50;;;21.70;66.50;;;;;;4962753;28;20028;-93
2022/05/26 08:18:02;;;;;;;1.33;0.65;;;21.50;66.50;;;;;;4952696;28;20606;-96
2022/05/26 08:20:28;;;;;;;1.25;0.68;;;21.40;67.00;;;;;;4953576;28;20050;-93
2022/05/26 08:22:54;;;;;;;2.83;0.63;;;21.50;67.40;;;;;;4953491;28;20038;-95
2022/05/26 08:25:20;;;;;;;2.28;0.70;;;21.60;67.70;;;;;;4960597;28;20066;-95
2022/05/26 08:27:45;;;;;;;0.70;0.40;;;21.80;67.40;;;;;;4961305;28;20050;-95
2022/05/26 08:30:12;;;;;;;1.42;0.60;;;22.00;66.40;;;;;;4958704;28;20027;-94
2022/05/26 08:32:37;;;;;;;0.70;0.50;;;22.30;65.80;;;;;;4957506;28;20050;-93
2022/05/26 08:35:07;;;;;;;0.88;0.50;;;22.60;63.90;;;;;;4950062;28;20052;-94
2022/05/26 08:37:33;;;;;;;0.88;0.50;;;22.70;63.90;;;;;;4940483;28;20027;-95
2022/05/26 08:39:58;;;;;;;1.50;0.55;;;22.50;65.30;;;;;;4968725;28;20020;-94
2022/05/26 08:42:28;;;;;;;1.83;0.57;;;22.40;64.70;;;;;;4957601;28;20772;-95
2022/05/26 08:44:58;;;;;;;1.83;0.70;;;22.40;64.70;;;;;;4958127;29;20044;-95
2022/05/26 08:47:34;;;;;;;1.92;0.35;;;22.10;65.70;;;;;;4946384;28;20123;-96
2022/05/26 08:50:07;;;;;;;0.95;0.40;;;21.70;66.00;;;;;;4958499;28;20039;-92
2022/05/26 08:52:49;;;;;;;0.50;0.50;;;21.30;66.90;;;;;;4958778;28;20034;-94
2022/05/26 08:55:21;;;;;;;0.80;0.45;;;21.10;68.00;;;;;;4947126;28;20020;-96
2022/05/26 08:58:17;;;;;;;0.85;0.43;;;21.00;67.60;;;;;;4968436;28;20507;-94
2022/05/26 09:00:46;;;;;;;0.47;0.30;;;21.20;68.30;;;;;;4951752;28;20491;-94
2022/05/26 09:15:19;;;;;;;1.17;0.52;;;24.30;58.80;;;;;;4954828;28;20042;-94
2022/05/26 09:17:44;;;;;;;0.50;0.40;;;24.20;59.20;;;;;;4957304;28;20032;-95
2022/05/26 09:20:30;;;;;;;0.30;0.30;;;23.90;58.70;;;;;;4971175;28;20027;-95
2022/05/26 09:23:11;;;;;;;0.73;0.30;;;23.40;60.50;;;;;;4966266;28;20037;-93
2022/05/26 09:25:44;;;;;;;0.52;0.38;;;22.80;62.10;;;;;;4979416;28;20078;-95
2022/05/26 09:28:10;;;;;;;0.35;0.30;;;22.30;62.90;;;;;;4969104;28;20039;-95
2022/05/26 09:30:37;;;;;;;0.30;0.30;;;21.80;64.10;;;;;;4982606;28;20062;-95
2022/05/26 09:33:18;;;;;;;1.58;0.30;;;21.50;66.40;;;;;;4959649;28;20039;-95
2022/05/26 09:35:43;;;;;;;1.23;0.30;;;21.10;66.10;;;;;;4968493;28;20050;-94
2022/05/26 09:38:17;;;;;;;1.25;0.40;;;20.90;67.10;;;;;;4964059;29;20039;-92
2022/05/26 09:40:46;;;;;;;2.13;0.32;;;20.60;68.00;;;;;;4962077;28;20028;-96
2022/05/26 09:43:23;;;;;;;1.08;0.40;;;20.40;68.60;;;;;;4960284;29;20034;-96
2022/05/26 09:45:50;;;;;;;1.10;0.38;;;20.40;70.30;;;;;;4949563;28;20091;-94
2022/05/26 09:48:26;;;;;;;1.17;0.40;;;20.50;70.00;;;;;;4957121;28;20055;-93
2022/05/26 09:51:11;;;;;;;0.30;0.30;;;20.50;68.50;;;;;;4953345;28;20023;-95
2022/05/26 09:53:43;;;;;;;1.00;0.32;;;20.60;68.80;;;;;;4968202;28;20098;-93
2022/05/26 09:56:12;;;;;;;0.88;0.30;;;20.60;69.40;;;;;;4957513;28;20056;-94
2022/05/26 09:58:43;;;;;;;0.38;0.38;;;20.70;68.80;;;;;;4939663;28;20032;-96
2022/05/26 10:01:22;;;;;;;0.50;0.40;;;20.80;68.70;;;;;;4934289;29;20028;-91
2022/05/26 10:04:06;;;;;;;0.40;0.40;;;21.00;67.50;;;;;;4977629;28;20294;-93
2022/05/26 10:06:36;;;;;;;2.67;0.68;;;21.20;66.90;;;;;;4963495;28;20476;-92
2022/05/26 10:09:23;;;;;;;0.75;0.40;;;21.40;67.90;;;;;;4968122;28;20036;-93
2022/05/26 10:11:51;;;;;;;1.20;0.60;;;21.70;66.30;;;;;;4957165;28;20036;-93
2022/05/26 10:14:35;;;;;;;2.40;0.47;;;22.10;64.80;;;;;;4952975;28;20038;-94
2022/05/26 10:17:11;;;;;;;1.00;0.40;;;22.40;64.30;;;;;;4961544;29;20063;-95
2022/05/26 10:19:39;;;;;;;2.00;0.80;;;22.70;62.70;;;;;;4960640;28;20035;-93
2022/05/26 10:22:25;;;;;;;1.48;0.40;;;22.70;62.20;;;;;;4977361;23;20050;-63
2022/05/26 10:24:54;;;;;;;0.63;0.32;;;22.70;61.80;;;;;;4949557;28;20100;-62
2022/05/26 10:27:25;;;;;;;1.75;0.50;;;22.80;62.60;;;;;;4942796;28;20020;-65
2022/05/26 10:30:09;;;;;;;1.58;0.50;;;22.70;62.20;;;;;;4944630;29;20438;-64
2022/05/26 10:32:46;;;;;;;0.95;0.40;;;22.60;63.40;;;;;;4939355;28;20392;-62
2022/05/26 10:35:23;;;;;;;1.02;0.30;;;22.60;63.40;;;;;;4936307;28;20031;-63
2022/05/26 10:38:11;;;;;;;0.60;0.35;;;22.70;63.70;;;;;;4943765;28;20475;-62
2022/05/26 10:41:09;;;;;;;1.23;0.30;;;22.70;62.50;;;;;;4941349;29;20416;-62
2022/05/26 10:43:49;;;;;;;0.68;0.30;;;22.70;62.20;;;;;;4945337;28;20043;-62
2022/05/26 10:46:18;;;;;;;6.88;0.60;;;22.80;62.60;;;;;;4941598;28;20035;-62
2022/05/26 10:49:05;;;;;;;0.82;0.38;;;23.00;62.00;;;;;;4945506;29;20642;-62
2022/05/26 10:51:45;;;;;;;0.30;0.30;;;23.30;61.60;;;;;;4942481;28;20031;-63
2022/05/26 10:54:49;;;;;;;1.27;0.38;;;23.40;59.30;;;;;;4943143;29;20514;-63
2022/05/26 10:57:27;;;;;;;0.65;0.35;;;23.50;58.70;;;;;;4939298;29;20435;-63
2022/05/26 11:00:15;;;;;;;0.73;0.38;;;23.40;58.80;;;;;;4940476;28;20023;-62
2022/05/26 11:02:50;;;;;;;0.88;0.80;;;23.00;59.80;;;;;;4941404;28;20028;-63
2022/05/26 11:05:36;;;;;;;2.63;1.40;;;22.60;61.40;;;;;;4947476;28;20106;-62
2022/05/26 11:08:34;;;;;;;1.80;0.60;;;22.50;61.50;;;;;;4941119;28;20549;-64
2022/05/26 11:11:06;;;;;;;1.02;0.50;;;22.50;62.40;;;;;;4943629;28;20035;-62
2022/05/26 11:17:21;;;;;;;0.40;0.30;;;23.70;60.90;;;;;;4921002;29;20059;-62
2022/05/26 11:20:03;;;;;;;0.77;0.30;;;24.70;58.50;;;;;;4943017;28;20047;-62
2022/05/26 11:22:29;;;;;;;;;;;25.30;56.90;;;;;;4939664;29;20035;-63
2022/05/26 11:24:57;;;;;;;0.30;0.30;;;25.40;55.20;;;;;;4940507;29;20273;-62
2022/05/26 11:27:30;;;;;;;1.13;0.20;;;25.50;54.10;;;;;;4944695;28;20085;-62
2022/05/26 11:30:01;;;;;;;1.27;0.30;;;25.10;54.70;;;;;;4944159;29;20028;-62
2022/05/26 11:38:28;;;;;;;1.25;0.50;;;26.10;54.10;;;;;;4943526;29;20319;-62
2022/05/26 11:41:09;;;;;;;0.20;0.20;;;26.20;54.00;;;;;;4939211;28;20040;-63
2022/05/26 11:43:40;;;;;;;0.25;0.25;;;26.40;53.30;;;;;;4938405;28;20574;-64
2022/05/26 11:46:07;;;;;;;;;;;26.60;52.10;;;;;;4935408;28;20027;-63
2022/05/26 11:48:33;;;;;;;0.77;0.30;;;26.80;51.60;;;;;;4940779;29;19934;-64
2022/05/26 11:51:03;;;;;;;2.63;0.40;;;26.80;51.20;;;;;;4941020;28;20019;-63
2022/05/26 11:53:42;;;;;;;1.48;0.30;;;26.90;52.60;;;;;;4939822;29;20027;-62
2022/05/26 11:56:26;;;;;;;0.30;0.30;;;27.10;50.90;;;;;;4937371;28;20510;-63
2022/05/26 11:59:22;;;;;;;3.28;0.22;;;27.50;50.20;;;;;;4939844;28;20151;-63
2022/05/26 12:01:59;;;;;;;0.43;0.25;;;27.80;49.60;;;;;;4938386;28;20427;-62
2022/05/26 12:04:37;;;;;;;0.20;0.20;;;27.50;49.40;;;;;;5041456;28;20500;-62
2022/05/26 12:07:15;;;;;;;3.05;0.40;;;27.40;50.00;;;;;;4974834;28;20027;-62
2022/05/26 12:09:46;;;;;;;2.08;0.30;;;27.20;50.30;;;;;;4978573;28;20023;-63
2022/05/26 12:12:17;;;;;;;1.00;0.40;;;27.00;50.80;;;;;;4973943;28;20126;-62
2022/05/26 12:14:43;;;;;;;0.82;0.20;;;26.60;49.20;;;;;;4971622;28;20537;-62
2022/05/26 12:17:30;;;;;;;0.55;0.28;;;26.40;48.80;;;;;;4977699;28;20035;-62
2022/05/26 12:20:16;;;;;;;1.00;0.30;;;26.20;49.60;;;;;;4972201;28;20046;-62
2022/05/26 12:22:51;;;;;;;0.50;0.20;;;26.00;50.00;;;;;;4967883;28;20035;-62
2022/05/26 12:25:39;;;;;;;0.68;0.43;;;25.70;49.60;;;;;;4978594;28;20026;-65
2022/05/26 12:28:13;;;;;;;0.90;0.30;;;25.70;51.20;;;;;;5015909;28;20077;-63
2022/05/26 12:30:45;;;;;;;0.85;0.20;;;25.50;49.30;;;;;;5015593;28;20596;-62
2022/05/26 12:33:19;;;;;;;1.73;0.40;;;25.40;49.60;;;;;;5013450;28;20026;-62
2022/05/26 12:36:03;;;;;;;0.30;0.30;;;25.40;50.30;;;;;;5009098;28;20046;-64
2022/05/26 12:38:44;;;;;;;1.08;0.30;;;25.40;51.10;;;;;;5015052;28;20401;-62
2022/05/26 12:41:28;;;;;;;;;;;25.50;50.10;;;;;;5013299;28;20030;-63
2022/05/26 12:44:03;;;;;;;0.75;0.30;;;25.60;51.20;;;;;;5013120;28;19914;-63
2022/05/26 12:46:50;;;;;;;0.40;0.30;;;25.80;50.90;;;;;;5013908;28;20042;-62
2022/05/26 12:49:41;;;;;;;1.75;0.57;;;26.00;49.50;;;;;;5011157;28;20021;-64
2022/05/26 12:52:29;;;;;;;;;;;25.70;49.50;;;;;;5015103;28;20034;-62
2022/05/26 12:55:16;;;;;;;1.58;0.40;;;25.50;48.90;;;;;;5012159;28;19910;-62
2022/05/26 12:57:46;;;;;;;1.23;0.35;;;25.20;49.60;;;;;;5029760;28;20659;-62
2022/05/26 13:00:35;;;;;;;0.57;0.50;;;24.80;50.60;;;;;;5010663;28;20374;-62
2022/05/26 13:03:07;;;;;;;0.20;0.20;;;24.30;52.20;;;;;;5015166;28;20040;-62
2022/05/26 13:05:46;;;;;;;1.83;0.30;;;23.60;54.90;;;;;;5014349;28;20033;-62
2022/05/26 13:08:16;;;;;;;0.98;0.40;;;23.20;55.60;;;;;;5016519;28;20485;-65
2022/05/26 13:10:43;;;;;;;0.88;0.30;;;23.10;56.60;;;;;;5011761;28;20516;-62
2022/05/26 13:13:27;;;;;;;3.22;0.40;;;23.10;57.30;;;;;;5016187;28;20034;-62
2022/05/26 13:15:53;;;;;;;1.10;0.20;;;23.00;57.10;;;;;;5002246;28;20923;-64
2022/05/26 13:18:24;;;;;;;1.05;0.30;;;23.20;56.40;;;;;;5001035;28;20031;-62
2022/05/26 13:20:50;;;;;;;0.30;0.20;;;23.40;55.80;;;;;;4995112;28;20452;-62
2022/05/26 13:23:30;;;;;;;2.33;0.38;;;23.60;57.30;;;;;;4999445;28;20110;-61
2022/05/26 13:25:58;;;;;;;0.30;0.28;;;23.70;55.80;;;;;;4997898;28;20034;-61
2022/05/26 13:28:31;;;;;;;3.20;0.32;;;23.90;54.50;;;;;;5001378;28;20022;-62
2022/05/26 13:33:49;;;;;;;0.95;0.30;;;23.90;54.80;;;;;;5001036;28;20121;-62
2022/05/26 13:36:37;;;;;;;0.50;0.38;;;24.00;54.60;;;;;;4998415;28;20027;-62
2022/05/26 13:39:15;;;;;;;1.02;0.40;;;24.00;55.70;;;;;;4994682;28;20490;-63
2022/05/26 13:41:44;;;;;;;1.38;0.38;;;23.80;54.60;;;;;;5000746;28;20117;-62
2022/05/26 13:44:20;;;;;;;0.30;0.30;;;23.80;55.00;;;;;;4998718;28;20044;-62
2022/05/26 13:46:50;;;;;;;0.63;0.32;;;23.80;55.30;;;;;;4996221;28;20061;-62
2022/05/26 13:49:39;;;;;;;0.47;0.47;;;23.70;56.10;;;;;;4996217;28;20101;-62
2022/05/26 13:52:16;;;;;;;1.05;0.30;;;23.90;55.80;;;;;;4998334;28;20045;-62
2022/05/26 13:54:59;;;;;;;2.20;0.40;;;24.20;55.80;;;;;;4998399;28;20489;-62
2022/05/26 13:57:39;;;;;;;0.77;0.30;;;24.50;53.90;;;;;;4998253;28;20022;-62
2022/05/26 14:00:30;;;;;;;1.17;0.40;;;24.80;54.50;;;;;;4996986;28;20033;-64
2022/05/26 14:02:58;;;;;;;0.50;0.40;;;24.80;53.40;;;;;;4994652;28;20573;-64